Time;durP1;ratioP1;P1;durP2;ratioP2;P2;SDS_P1;SDS_P2;PMS_P1;PMS_P2;Temp;Humidity;BMP_temperature;BMP_pressure;BME280_temperature;BME280_humidity;BME280_pressure;Samples;Min_cycle;Max_cycle;Signal;HPM_P1;HPM_P2
2023/03/30 00:02:07;;;;;;;1.10;1.10;;;17.90;62.20;;;;;;5093367;27;43390;-77
2023/03/30 00:04:36;;;;;;;1.10;1.10;;;17.80;62.10;;;;;;5095680;27;43415;-77
2023/03/30 00:07:05;;;;;;;1.30;1.20;;;17.80;62.40;;;;;;5088181;27;45689;-76
2023/03/30 00:09:32;;;;;;;1.00;1.00;;;17.80;62.30;;;;;;5103878;27;43430;-75
2023/03/30 00:12:02;;;;;;;1.10;1.10;;;17.80;62.30;;;;;;5087748;27;43381;-77
2023/03/30 00:14:36;;;;;;;1.13;1.13;;;17.80;62.30;;;;;;5098519;27;43529;-75
2023/03/30 00:17:04;;;;;;;0.80;0.80;;;17.80;63.10;;;;;;5089315;27;43739;-77
2023/03/30 00:19:32;;;;;;;1.17;1.17;;;17.70;62.50;;;;;;5090621;27;43536;-78
2023/03/30 00:22:00;;;;;;;1.30;1.30;;;17.70;62.70;;;;;;5093155;27;43676;-76
2023/03/30 00:24:28;;;;;;;0.90;0.90;;;17.70;62.60;;;;;;5075938;27;43655;-76
2023/03/30 00:26:56;;;;;;;1.17;1.17;;;17.70;62.50;;;;;;5096468;27;43592;-73
2023/03/30 00:29:24;;;;;;;1.20;1.20;;;17.70;62.50;;;;;;5063828;27;44560;-75
2023/03/30 00:31:53;;;;;;;1.03;1.03;;;17.70;62.50;;;;;;5086089;27;43357;-77
2023/03/30 00:34:21;;;;;;;1.10;1.10;;;17.70;62.70;;;;;;5074158;27;43568;-76
2023/03/30 00:36:52;;;;;;;1.03;1.03;;;17.60;62.70;;;;;;5066721;27;46015;-78
2023/03/30 00:39:21;;;;;;;0.90;0.90;;;17.70;62.80;;;;;;5075208;27;44456;-77
2023/03/30 00:41:51;;;;;;;1.10;1.10;;;17.80;62.60;;;;;;5076041;27;43417;-76
2023/03/30 00:44:56;;;;;;;1.10;1.10;;;17.90;62.20;;;;;;5092756;27;43533;-77
2023/03/30 00:47:25;;;;;;;1.40;1.40;;;17.90;62.10;;;;;;5101811;27;43573;-76
2023/03/30 00:49:53;;;;;;;1.10;1.10;;;17.90;62.10;;;;;;5088431;27;44935;-76
2023/03/30 00:52:23;;;;;;;1.00;1.00;;;17.90;62.30;;;;;;5093925;27;43585;-77
2023/03/30 00:54:51;;;;;;;1.20;1.20;;;17.80;62.30;;;;;;5078695;27;43867;-76
2023/03/30 00:57:19;;;;;;;1.10;1.10;;;17.90;62.30;;;;;;5097820;27;43939;-75
2023/03/30 00:59:48;;;;;;;1.20;1.20;;;17.80;62.20;;;;;;5088391;27;44953;-76
2023/03/30 01:02:17;;;;;;;0.90;0.90;;;17.80;62.30;;;;;;5095551;27;43418;-77
2023/03/30 01:04:47;;;;;;;0.90;0.90;;;17.80;62.40;;;;;;5089117;27;43394;-75
2023/03/30 01:07:15;;;;;;;1.37;1.10;;;17.70;62.50;;;;;;5076186;27;45779;-76
2023/03/30 01:09:43;;;;;;;1.53;1.43;;;17.70;62.70;;;;;;5106887;27;43411;-76
2023/03/30 01:12:11;;;;;;;1.00;1.00;;;17.80;62.50;;;;;;5079662;27;43376;-74
2023/03/30 01:14:40;;;;;;;1.20;1.20;;;17.90;62.20;;;;;;5086126;27;43618;-76
2023/03/30 01:17:12;;;;;;;1.13;1.13;;;17.90;62.10;;;;;;5082038;27;45977;-76
2023/03/30 01:20:11;;;;;;;1.20;1.20;;;17.90;62.10;;;;;;5087358;27;45523;-75
2023/03/30 01:23:02;;;;;;;1.10;1.10;;;17.90;62.20;;;;;;5096086;27;43863;-77
2023/03/30 01:25:39;;;;;;;1.10;1.10;;;17.80;62.20;;;;;;5084014;27;43501;-76
2023/03/30 01:28:19;;;;;;;1.10;1.10;;;17.80;62.20;;;;;;5083767;27;45487;-78
2023/03/30 01:31:14;;;;;;;0.83;0.83;;;17.80;62.20;;;;;;5091756;27;43393;-76
2023/03/30 01:33:57;;;;;;;1.10;1.10;;;17.80;62.30;;;;;;5093620;27;43390;-76
2023/03/30 01:36:54;;;;;;;0.90;0.90;;;17.80;62.50;;;;;;5092343;27;43487;-78
2023/03/30 01:39:37;;;;;;;1.10;1.10;;;17.70;62.70;;;;;;5082561;27;45824;-77
2023/03/30 01:42:09;;;;;;;1.63;1.40;;;17.70;62.50;;;;;;5101612;27;43454;-77
2023/03/30 01:44:40;;;;;;;0.90;0.90;;;17.70;62.50;;;;;;5085777;27;43407;-75
2023/03/30 01:47:12;;;;;;;0.90;0.90;;;17.80;62.60;;;;;;5099902;27;43411;-76
2023/03/30 01:49:41;;;;;;;1.13;1.13;;;17.70;62.60;;;;;;5085269;27;46102;-76
2023/03/30 01:52:14;;;;;;;1.20;1.20;;;17.70;62.70;;;;;;5086950;27;45314;-76
2023/03/30 01:54:45;;;;;;;1.10;1.10;;;17.70;62.90;;;;;;5094667;27;43418;-75
2023/03/30 01:57:15;;;;;;;1.10;1.10;;;17.80;62.60;;;;;;5084937;27;43399;-77
2023/03/30 01:59:44;;;;;;;1.20;1.20;;;17.90;62.30;;;;;;5086161;27;43821;-77
2023/03/30 02:02:12;;;;;;;1.00;1.00;;;17.90;62.10;;;;;;5080277;27;44756;-77
2023/03/30 02:04:40;;;;;;;1.00;1.00;;;17.90;62.10;;;;;;5101444;27;43384;-74
2023/03/30 02:07:10;;;;;;;1.60;1.17;;;17.90;62.20;;;;;;5081826;27;43608;-78
2023/03/30 02:09:38;;;;;;;1.10;1.10;;;17.90;62.40;;;;;;5090257;27;45690;-77
2023/03/30 02:12:08;;;;;;;1.30;1.30;;;17.90;62.30;;;;;;5079099;27;44276;-77
2023/03/30 02:14:35;;;;;;;1.10;1.10;;;17.90;62.30;;;;;;5090520;27;43496;-71
2023/03/30 02:17:05;;;;;;;1.20;1.10;;;17.80;62.20;;;;;;5091466;27;43476;-77
2023/03/30 02:19:33;;;;;;;1.07;1.07;;;17.80;62.40;;;;;;5085872;27;44112;-75
2023/03/30 02:22:01;;;;;;;1.03;1.03;;;17.80;62.50;;;;;;5071679;27;45043;-77
2023/03/30 02:24:31;;;;;;;1.73;1.30;;;17.80;62.80;;;;;;5101827;27;43455;-74
2023/03/30 02:27:00;;;;;;;1.13;1.13;;;17.80;62.70;;;;;;5103358;27;43918;-76
2023/03/30 02:29:29;;;;;;;1.00;1.00;;;17.80;62.70;;;;;;5106802;27;45103;-77
2023/03/30 02:31:57;;;;;;;1.00;1.00;;;17.80;62.70;;;;;;5102566;27;43432;-74
2023/03/30 02:34:38;;;;;;;1.20;1.20;;;17.70;62.70;;;;;;5084183;27;43466;-71
2023/03/30 02:37:18;;;;;;;1.10;1.10;;;17.70;62.80;;;;;;5082386;27;43604;-77
2023/03/30 02:39:53;;;;;;;1.10;1.10;;;17.70;62.90;;;;;;5081853;27;45547;-76
2023/03/30 02:42:31;;;;;;;1.30;1.30;;;17.80;62.60;;;;;;5087310;27;43725;-75
2023/03/30 02:45:07;;;;;;;1.10;1.10;;;17.90;62.30;;;;;;5102534;27;43366;-75
2023/03/30 02:47:37;;;;;;;0.90;0.90;;;17.90;62.20;;;;;;5097835;27;43456;-76
2023/03/30 02:50:08;;;;;;;1.00;1.00;;;17.90;62.20;;;;;;5083590;27;45511;-77
2023/03/30 02:52:43;;;;;;;1.17;1.10;;;17.90;62.40;;;;;;5089576;27;45189;-77
2023/03/30 02:55:15;;;;;;;1.00;1.00;;;17.90;62.50;;;;;;5081395;27;43413;-76
2023/03/30 02:58:03;;;;;;;1.13;1.13;;;17.90;62.50;;;;;;5089797;27;43641;-77
2023/03/30 03:00:52;;;;;;;1.10;1.10;;;17.90;62.50;;;;;;5099254;27;43484;-76
2023/03/30 03:03:33;;;;;;;1.10;1.10;;;17.80;62.40;;;;;;5084564;27;43454;-74
2023/03/30 03:06:01;;;;;;;1.23;1.13;;;17.80;62.60;;;;;;5083618;27;43533;-75
2023/03/30 03:08:34;;;;;;;1.20;1.20;;;17.80;62.90;;;;;;5086614;27;43474;-76
2023/03/30 03:11:04;;;;;;;1.27;1.00;;;17.80;62.90;;;;;;5086271;27;45734;-77
2023/03/30 03:13:35;;;;;;;1.20;1.10;;;17.80;62.80;;;;;;5100332;27;43491;-74
2023/03/30 03:16:06;;;;;;;1.00;1.00;;;17.80;62.80;;;;;;5089990;27;44036;-74
2023/03/30 03:18:38;;;;;;;1.23;1.10;;;17.80;62.80;;;;;;5086291;27;43613;-77
2023/03/30 03:21:06;;;;;;;1.10;1.10;;;17.70;62.90;;;;;;5088911;27;45088;-78
2023/03/30 03:23:35;;;;;;;1.00;1.00;;;17.70;63.00;;;;;;5089871;27;43425;-77
2023/03/30 03:26:03;;;;;;;1.40;1.40;;;17.80;63.10;;;;;;5088895;27;43842;-77
2023/03/30 03:28:31;;;;;;;1.33;1.33;;;17.80;62.60;;;;;;5075430;27;43415;-75
2023/03/30 03:31:07;;;;;;;1.00;1.00;;;17.90;62.50;;;;;;5065929;27;43920;-75
2023/03/30 03:33:35;;;;;;;1.17;1.17;;;17.90;62.40;;;;;;5088524;27;44760;-77
2023/03/30 03:36:26;;;;;;;1.20;1.20;;;17.90;62.50;;;;;;5089378;27;43405;-69
2023/03/30 03:38:54;;;;;;;1.10;1.10;;;17.90;62.70;;;;;;5087304;27;43786;-77
2023/03/30 03:41:23;;;;;;;1.10;1.10;;;17.90;62.60;;;;;;5082739;27;43847;-77
2023/03/30 03:43:51;;;;;;;0.93;0.93;;;17.90;62.60;;;;;;5082500;27;43887;-77
2023/03/30 03:46:20;;;;;;;1.03;1.00;;;17.90;62.60;;;;;;5104702;27;43524;-76
2023/03/30 03:48:50;;;;;;;1.10;1.10;;;17.80;62.70;;;;;;5086067;28;43410;-76
2023/03/30 03:51:18;;;;;;;1.10;1.10;;;17.80;62.90;;;;;;5102149;27;44051;-75
2023/03/30 03:53:47;;;;;;;1.00;1.00;;;17.80;63.20;;;;;;5077328;27;45148;-76
2023/03/30 03:56:15;;;;;;;1.20;1.20;;;17.80;63.00;;;;;;5087018;27;43460;-76
2023/03/30 03:58:43;;;;;;;0.93;0.93;;;17.80;62.90;;;;;;5087258;27;43999;-77
2023/03/30 04:01:13;;;;;;;1.00;1.00;;;17.80;62.90;;;;;;5074926;27;46156;-77
2023/03/30 04:03:42;;;;;;;1.30;1.20;;;17.80;63.00;;;;;;5071932;27;44803;-76
2023/03/30 04:06:10;;;;;;;1.10;1.10;;;17.70;63.00;;;;;;5101876;27;43998;-78
2023/03/30 04:08:38;;;;;;;1.20;1.20;;;17.80;63.20;;;;;;5086360;27;43447;-75
2023/03/30 04:11:21;;;;;;;1.07;1.07;;;17.80;63.00;;;;;;5075933;27;44837;-76
2023/03/30 04:14:00;;;;;;;1.00;1.00;;;17.90;62.60;;;;;;5077143;27;43980;-75
2023/03/30 04:16:47;;;;;;;1.20;1.20;;;18.00;62.40;;;;;;5079527;27;43370;-75
2023/03/30 04:19:36;;;;;;;1.30;1.30;;;18.00;62.30;;;;;;5084521;27;43561;-77
2023/03/30 04:22:15;;;;;;;1.17;1.17;;;18.00;62.50;;;;;;5078760;27;45706;-76
2023/03/30 04:25:21;;;;;;;1.10;1.10;;;18.00;62.50;;;;;;5081965;27;44148;-75
2023/03/30 04:28:03;;;;;;;1.20;1.20;;;18.00;62.50;;;;;;5094693;27;43435;-77
2023/03/30 04:30:44;;;;;;;0.93;0.93;;;18.00;62.50;;;;;;5086067;27;43542;-75
2023/03/30 04:33:49;;;;;;;1.00;1.00;;;17.90;62.60;;;;;;5077667;27;44846;-76
2023/03/30 04:36:43;;;;;;;1.20;1.20;;;17.90;62.80;;;;;;5041215;27;43992;-76
2023/03/30 04:39:28;;;;;;;1.40;1.30;;;17.90;63.00;;;;;;5083176;27;43403;-76
2023/03/30 04:42:05;;;;;;;1.07;1.07;;;17.90;62.90;;;;;;5070207;27;43957;-76
2023/03/30 04:44:49;;;;;;;1.00;1.00;;;17.90;62.80;;;;;;5087028;27;45435;-78
2023/03/30 04:47:34;;;;;;;1.10;1.10;;;17.80;62.80;;;;;;5081751;27;43466;-76
2023/03/30 04:50:10;;;;;;;1.60;1.50;;;17.80;62.90;;;;;;5101172;27;43517;-78
2023/03/30 04:52:40;;;;;;;2.63;1.10;;;17.80;63.90;;;;;;5095848;27;43371;-77
2023/03/30 04:55:25;;;;;;;1.53;1.20;;;17.80;63.10;;;;;;5080870;27;44177;-76
2023/03/30 04:58:22;;;;;;;1.20;1.20;;;17.90;63.00;;;;;;5026926;27;43507;-75
2023/03/30 05:01:00;;;;;;;1.17;1.10;;;17.80;62.90;;;;;;5087520;27;43965;-76
2023/03/30 05:03:54;;;;;;;1.30;1.30;;;17.80;63.00;;;;;;5089275;27;43493;-75
2023/03/30 05:06:58;;;;;;;1.47;1.40;;;17.80;63.20;;;;;;5008642;28;43591;-78
2023/03/30 05:09:52;;;;;;;1.10;1.10;;;17.80;63.20;;;;;;5073811;27;44617;-76
2023/03/30 05:12:38;;;;;;;1.33;1.23;;;18.00;63.00;;;;;;5101687;27;43356;-75
2023/03/30 05:15:12;;;;;;;1.30;1.30;;;18.10;62.60;;;;;;5106968;27;44007;-74
2023/03/30 05:18:10;;;;;;;1.90;1.50;;;18.10;62.30;;;;;;5027763;27;43697;-76
2023/03/30 05:20:57;;;;;;;1.47;1.47;;;18.10;62.20;;;;;;5092081;27;43588;-76
2023/03/30 05:23:48;;;;;;;1.40;1.40;;;18.10;62.60;;;;;;5078207;27;43432;-77
2023/03/30 05:26:45;;;;;;;1.47;1.47;;;18.10;62.50;;;;;;5087324;27;43398;-76
2023/03/30 05:29:31;;;;;;;1.40;1.40;;;18.00;62.40;;;;;;5086877;27;43979;-76
2023/03/30 05:32:17;;;;;;;1.40;1.30;;;18.00;62.50;;;;;;5094493;27;43367;-76
2023/03/30 05:35:05;;;;;;;1.40;1.40;;;17.90;62.60;;;;;;5087121;27;43456;-75
2023/03/30 05:37:54;;;;;;;2.30;1.20;;;17.90;62.90;;;;;;5093638;27;43409;-77
2023/03/30 05:40:40;;;;;;;3.37;1.43;;;17.90;62.90;;;;;;5101381;27;43556;-76
2023/03/30 05:43:25;;;;;;;2.53;1.30;;;17.90;62.90;;;;;;5085856;27;44830;-78
2023/03/30 05:46:23;;;;;;;1.13;1.07;;;17.90;62.90;;;;;;5096988;27;43426;-76
2023/03/30 05:49:17;;;;;;;1.60;1.50;;;17.90;63.00;;;;;;5098570;27;43332;-76
2023/03/30 05:52:06;;;;;;;1.40;1.40;;;17.80;63.10;;;;;;5060191;27;43595;-77
2023/03/30 05:54:52;;;;;;;1.50;1.40;;;17.80;63.30;;;;;;5102112;27;43347;-77
2023/03/30 05:57:44;;;;;;;1.30;1.30;;;17.90;63.10;;;;;;5096968;27;43428;-78
2023/03/30 06:00:21;;;;;;;1.47;1.37;;;17.80;63.00;;;;;;5085886;27;43503;-76
2023/03/30 06:03:05;;;;;;;1.10;1.10;;;17.80;63.10;;;;;;5084855;28;44018;-75
2023/03/30 06:05:34;;;;;;;1.40;1.40;;;17.80;63.20;;;;;;5083868;28;44906;-77
2023/03/30 06:08:04;;;;;;;1.27;1.23;;;17.80;63.50;;;;;;5080621;27;43470;-74
2023/03/30 06:10:32;;;;;;;1.30;1.20;;;17.80;63.30;;;;;;5091293;27;43586;-75
2023/03/30 06:13:00;;;;;;;1.37;1.33;;;18.00;63.10;;;;;;5080277;27;45873;-77
2023/03/30 06:15:41;;;;;;;1.10;1.10;;;18.10;62.70;;;;;;5072574;27;45014;-77
2023/03/30 06:18:12;;;;;;;1.30;1.30;;;18.10;62.40;;;;;;5089334;27;43984;-78
2023/03/30 06:20:48;;;;;;;1.17;1.17;;;18.10;62.30;;;;;;5078328;27;43478;-75
2023/03/30 06:23:16;;;;;;;1.20;1.20;;;18.10;62.60;;;;;;5084699;27;45760;-78
2023/03/30 06:25:46;;;;;;;1.30;1.30;;;18.10;62.60;;;;;;5089739;27;45044;-78
2023/03/30 06:28:14;;;;;;;1.30;1.30;;;18.00;62.50;;;;;;5079950;27;43895;-76
2023/03/30 06:30:47;;;;;;;1.00;1.00;;;18.00;62.50;;;;;;5084939;27;43410;-76
2023/03/30 06:33:18;;;;;;;1.50;1.40;;;18.00;62.70;;;;;;5073669;28;44736;-77
2023/03/30 06:35:54;;;;;;;1.40;1.40;;;17.90;62.80;;;;;;5057865;27;43413;-77
2023/03/30 06:38:23;;;;;;;1.40;1.30;;;17.90;63.10;;;;;;5084949;28;43312;-77
2023/03/30 06:40:53;;;;;;;1.43;1.43;;;17.90;63.00;;;;;;5084193;27;43721;-75
2023/03/30 06:43:24;;;;;;;1.40;1.40;;;17.90;62.90;;;;;;5075500;27;45706;-78
2023/03/30 06:46:04;;;;;;;1.00;1.00;;;17.90;62.90;;;;;;5090406;27;43488;-77
2023/03/30 06:48:32;;;;;;;1.37;1.37;;;17.90;63.00;;;;;;5085248;27;43375;-76
2023/03/30 06:51:23;;;;;;;1.37;1.27;;;17.90;63.10;;;;;;5106485;27;43980;-77
2023/03/30 06:53:55;;;;;;;1.30;1.30;;;17.80;63.20;;;;;;5080166;27;45775;-75
2023/03/30 06:56:25;;;;;;;1.17;1.17;;;17.90;63.20;;;;;;5090079;27;44680;-76
2023/03/30 06:59:05;;;;;;;1.40;1.30;;;17.90;63.10;;;;;;5090126;27;43363;-76
2023/03/30 07:01:50;;;;;;;1.37;1.37;;;17.90;63.10;;;;;;5089539;27;43450;-73
2023/03/30 07:04:30;;;;;;;1.30;1.30;;;17.90;63.20;;;;;;5077791;27;44059;-77
2023/03/30 07:07:13;;;;;;;1.40;1.40;;;17.90;63.30;;;;;;5076982;27;44366;-76
2023/03/30 07:09:42;;;;;;;1.20;1.20;;;17.90;63.40;;;;;;5075153;27;43460;-77
2023/03/30 07:12:10;;;;;;;1.20;1.20;;;18.00;63.10;;;;;;5085831;27;43494;-72
2023/03/30 07:14:38;;;;;;;1.50;1.50;;;18.10;62.80;;;;;;5093161;27;43818;-75
2023/03/30 07:17:07;;;;;;;1.10;1.10;;;18.20;62.50;;;;;;5083549;27;44911;-77
2023/03/30 07:19:36;;;;;;;1.30;1.30;;;18.20;62.50;;;;;;5083452;27;43944;-77
2023/03/30 07:22:04;;;;;;;1.30;1.30;;;18.10;62.50;;;;;;5090560;27;43962;-76
2023/03/30 07:24:32;;;;;;;1.70;1.60;;;18.10;62.60;;;;;;5084073;27;45365;-76
2023/03/30 07:27:00;;;;;;;1.60;1.50;;;18.10;62.50;;;;;;5086560;27;45029;-78
2023/03/30 07:29:28;;;;;;;1.20;1.20;;;18.10;62.50;;;;;;5088804;27;43439;-77
2023/03/30 07:31:58;;;;;;;1.27;1.20;;;18.10;62.60;;;;;;5086486;27;43563;-76
2023/03/30 07:34:28;;;;;;;1.40;1.40;;;18.00;62.70;;;;;;5086062;27;45705;-71
2023/03/30 07:36:58;;;;;;;1.40;1.30;;;18.00;63.00;;;;;;5088202;27;43894;-76
2023/03/30 07:39:29;;;;;;;1.30;1.30;;;18.00;63.10;;;;;;5089964;27;43375;-76
2023/03/30 07:42:02;;;;;;;1.13;1.13;;;18.00;63.00;;;;;;5089764;27;43586;-74
2023/03/30 07:44:30;;;;;;;1.13;1.13;;;18.00;63.00;;;;;;5088623;27;45853;-77
2023/03/30 07:47:05;;;;;;;1.17;1.17;;;17.90;63.00;;;;;;5088342;27;43296;-77
2023/03/30 07:49:36;;;;;;;1.30;1.30;;;17.90;63.10;;;;;;5085450;27;43498;-75
2023/03/30 07:52:06;;;;;;;1.30;1.30;;;17.90;63.30;;;;;;5087594;27;43582;-76
2023/03/30 07:54:47;;;;;;;1.30;1.30;;;17.90;63.30;;;;;;5075743;27;43857;-77
2023/03/30 07:57:18;;;;;;;1.33;1.33;;;17.90;63.20;;;;;;5082694;28;44606;-74
2023/03/30 07:59:46;;;;;;;1.10;1.10;;;17.90;63.10;;;;;;5102565;27;43767;-75
2023/03/30 08:02:28;;;;;;;1.10;1.10;;;17.90;63.20;;;;;;5073040;27;43524;-77
2023/03/30 08:04:58;;;;;;;1.30;1.30;;;17.90;63.40;;;;;;5081662;27;44963;-70
2023/03/30 08:07:47;;;;;;;1.40;1.30;;;17.80;63.50;;;;;;5098330;27;44024;-77
2023/03/30 08:10:22;;;;;;;1.20;1.20;;;17.90;63.30;;;;;;5084036;27;43428;-77
2023/03/30 08:12:50;;;;;;;1.20;1.20;;;18.10;63.10;;;;;;5080330;28;43451;-77
2023/03/30 08:15:18;;;;;;;1.30;1.23;;;18.10;62.60;;;;;;5085098;27;45838;-75
2023/03/30 08:17:47;;;;;;;1.30;1.30;;;18.20;62.60;;;;;;5106879;27;43465;-77
2023/03/30 08:20:17;;;;;;;1.53;1.43;;;18.10;62.50;;;;;;5086100;27;43473;-77
2023/03/30 08:22:46;;;;;;;1.40;1.40;;;18.10;62.90;;;;;;5102591;27;43604;-78
2023/03/30 08:25:17;;;;;;;1.20;1.20;;;18.10;62.80;;;;;;5088357;27;45430;-78
2023/03/30 08:27:46;;;;;;;1.20;1.20;;;18.10;62.70;;;;;;5083310;27;44413;-78
2023/03/30 08:30:15;;;;;;;1.30;1.30;;;18.00;62.70;;;;;;5091420;27;43346;-77
2023/03/30 08:32:43;;;;;;;1.20;1.20;;;18.00;62.90;;;;;;5088884;27;43692;-76
2023/03/30 08:35:12;;;;;;;1.33;1.33;;;17.90;62.90;;;;;;5079615;27;45812;-75
2023/03/30 08:37:42;;;;;;;1.00;1.00;;;17.90;63.30;;;;;;5105646;27;43440;-74
2023/03/30 08:40:11;;;;;;;1.30;1.30;;;17.90;63.20;;;;;;5085581;27;43976;-76
2023/03/30 08:43:05;;;;;;;1.10;1.10;;;17.90;63.10;;;;;;5080323;27;43525;-76
2023/03/30 08:45:35;;;;;;;1.00;1.00;;;17.90;63.20;;;;;;5082774;27;44134;-77
2023/03/30 08:48:03;;;;;;;1.40;1.40;;;17.90;63.30;;;;;;5104514;27;43388;-77
2023/03/30 08:50:33;;;;;;;1.20;1.20;;;17.80;63.40;;;;;;5100019;27;44008;-76
2023/03/30 08:53:03;;;;;;;1.30;1.30;;;17.90;63.50;;;;;;5084311;28;43578;-75
2023/03/30 08:55:32;;;;;;;1.47;1.47;;;17.90;63.40;;;;;;5074889;27;46107;-74
2023/03/30 08:58:02;;;;;;;1.00;1.00;;;17.90;63.30;;;;;;5081299;27;44981;-77
2023/03/30 09:00:35;;;;;;;1.30;1.20;;;17.90;63.40;;;;;;5102605;27;43380;-76
2023/03/30 09:03:08;;;;;;;1.20;1.20;;;17.80;63.40;;;;;;5101083;27;44010;-74
2023/03/30 09:05:39;;;;;;;1.13;1.13;;;17.80;63.60;;;;;;5090389;27;43592;-73
2023/03/30 09:08:12;;;;;;;1.30;1.30;;;17.90;63.70;;;;;;5105449;27;44532;-75
2023/03/30 09:10:42;;;;;;;1.20;1.20;;;18.00;63.40;;;;;;5079828;27;43558;-78
2023/03/30 09:13:12;;;;;;;1.27;1.27;;;18.10;63.00;;;;;;5102369;27;43450;-77
2023/03/30 09:15:42;;;;;;;1.37;1.37;;;18.20;62.70;;;;;;5095223;27;43858;-77
2023/03/30 09:18:13;;;;;;;1.20;1.20;;;18.20;62.60;;;;;;5095555;27;43577;-73
2023/03/30 09:20:41;;;;;;;1.30;1.30;;;18.10;62.70;;;;;;5096996;27;43437;-76
2023/03/30 09:23:15;;;;;;;1.20;1.20;;;18.10;62.90;;;;;;5094366;27;44143;-77
2023/03/30 09:25:45;;;;;;;1.20;1.20;;;18.10;62.80;;;;;;5101949;27;43865;-75
2023/03/30 09:28:15;;;;;;;1.30;1.30;;;18.10;62.90;;;;;;5083722;27;44990;-76
2023/03/30 09:30:45;;;;;;;1.27;1.27;;;18.00;62.80;;;;;;5104668;27;43405;-76
2023/03/30 09:33:26;;;;;;;1.30;1.30;;;18.00;63.00;;;;;;5104247;27;43391;-76
2023/03/30 09:36:03;;;;;;;1.60;1.37;;;18.00;63.20;;;;;;5086956;27;45383;-77
2023/03/30 09:38:33;;;;;;;1.40;1.40;;;17.90;63.20;;;;;;5082923;27;44685;-78
2023/03/30 09:41:10;;;;;;;1.50;1.40;;;18.00;63.30;;;;;;5100833;27;43434;-78
2023/03/30 09:43:42;;;;;;;1.37;1.37;;;18.00;63.30;;;;;;5088098;27;43939;-77
2023/03/30 09:46:10;;;;;;;1.20;1.20;;;17.90;63.30;;;;;;5101622;27;43789;-75
2023/03/30 09:48:40;;;;;;;1.67;1.67;;;17.90;63.40;;;;;;5096705;27;43410;-77
2023/03/30 09:51:15;;;;;;;1.30;1.30;;;17.90;63.60;;;;;;5099813;27;43373;-76
2023/03/30 09:53:45;;;;;;;1.27;1.27;;;17.90;63.50;;;;;;5101483;27;43581;-75
2023/03/30 09:56:18;;;;;;;1.10;1.10;;;17.90;63.30;;;;;;5078572;27;45009;-76
2023/03/30 09:58:46;;;;;;;1.33;1.33;;;17.90;63.40;;;;;;5086638;27;45047;-73
2023/03/30 10:01:15;;;;;;;1.43;1.43;;;17.90;63.50;;;;;;5067261;27;43434;-76
2023/03/30 10:03:46;;;;;;;1.10;1.10;;;17.90;63.60;;;;;;5097040;27;43398;-77
2023/03/30 10:06:17;;;;;;;1.40;1.40;;;17.80;63.70;;;;;;5085716;27;46015;-75
2023/03/30 10:08:50;;;;;;;1.23;1.23;;;17.90;63.70;;;;;;5095657;27;43474;-77
2023/03/30 10:11:19;;;;;;;1.37;1.37;;;18.00;63.40;;;;;;5085801;27;43666;-74
2023/03/30 10:13:48;;;;;;;1.50;1.50;;;18.10;63.10;;;;;;5072606;27;43443;-77
2023/03/30 10:16:23;;;;;;;1.30;1.30;;;18.10;62.90;;;;;;5097472;27;43616;-74
2023/03/30 10:18:52;;;;;;;1.27;1.27;;;18.10;62.90;;;;;;5084909;27;44609;-78
2023/03/30 10:21:26;;;;;;;1.10;1.10;;;18.10;63.10;;;;;;5095773;27;43394;-74
2023/03/30 10:24:06;;;;;;;1.40;1.40;;;18.10;63.20;;;;;;5081753;27;43669;-77
2023/03/30 10:26:36;;;;;;;1.20;1.20;;;18.10;63.00;;;;;;5086635;27;46130;-74
2023/03/30 10:29:04;;;;;;;1.10;1.10;;;18.00;63.00;;;;;;5106399;27;43412;-77
2023/03/30 10:31:34;;;;;;;1.20;1.20;;;18.00;63.10;;;;;;5085908;27;44113;-77
2023/03/30 10:34:03;;;;;;;1.07;1.07;;;18.00;63.30;;;;;;5097583;27;43907;-77
2023/03/30 10:36:32;;;;;;;1.40;1.40;;;17.90;63.50;;;;;;5090742;27;44951;-75
2023/03/30 10:39:07;;;;;;;1.40;1.40;;;18.00;63.50;;;;;;5087669;27;45456;-77
2023/03/30 10:41:35;;;;;;;1.30;1.30;;;18.00;63.40;;;;;;5106202;27;43766;-76
2023/03/30 10:44:15;;;;;;;1.20;1.20;;;18.00;63.40;;;;;;5104436;27;44949;-76
2023/03/30 10:46:46;;;;;;;1.00;1.00;;;17.90;63.40;;;;;;5083625;27;46122;-76
2023/03/30 10:49:18;;;;;;;1.37;1.30;;;17.90;63.60;;;;;;5079370;27;44754;-76
2023/03/30 10:51:53;;;;;;;1.40;1.40;;;17.90;63.70;;;;;;5107357;27;43596;-78
2023/03/30 10:54:25;;;;;;;2.03;1.33;;;18.00;63.70;;;;;;5103922;27;43449;-76
2023/03/30 10:56:54;;;;;;;1.50;1.40;;;18.10;63.40;;;;;;5102164;27;43927;-75
2023/03/30 10:59:38;;;;;;;1.40;1.40;;;18.10;63.00;;;;;;5105372;27;43493;-77
2023/03/30 11:02:37;;;;;;;2.90;1.40;;;18.10;63.60;;;;;;5074184;27;43471;-73
2023/03/30 11:05:08;;;;;;;1.20;1.10;;;18.10;62.90;;;;;;5088485;27;43942;-74
2023/03/30 11:07:40;;;;;;;1.60;1.40;;;18.10;63.20;;;;;;5101463;27;43912;-77
2023/03/30 11:10:15;;;;;;;1.43;1.40;;;18.10;63.20;;;;;;5094930;27;43440;-75
2023/03/30 11:12:44;;;;;;;1.50;1.37;;;18.10;63.10;;;;;;5103558;27;43403;-78
2023/03/30 11:15:14;;;;;;;1.27;1.27;;;18.10;63.20;;;;;;5088205;27;43978;-77
2023/03/30 11:17:47;;;;;;;1.30;1.30;;;18.00;63.30;;;;;;5106157;27;44006;-75
2023/03/30 11:20:19;;;;;;;2.27;1.20;;;18.00;63.40;;;;;;5102505;27;43381;-76
2023/03/30 11:22:51;;;;;;;1.53;1.43;;;18.00;63.60;;;;;;5077120;27;43892;-78
2023/03/30 11:25:22;;;;;;;1.20;1.20;;;18.00;63.40;;;;;;5075250;27;43517;-76
2023/03/30 11:27:52;;;;;;;1.10;1.10;;;18.10;63.20;;;;;;5102632;27;43615;-76
2023/03/30 11:30:26;;;;;;;1.70;1.27;;;18.10;63.00;;;;;;5077684;27;45012;-74
2023/03/30 11:32:56;;;;;;;1.00;1.00;;;18.10;63.10;;;;;;5083359;27;43913;-75
2023/03/30 11:35:29;;;;;;;1.40;1.40;;;18.10;63.20;;;;;;5102942;27;43895;-78
2023/03/30 11:37:58;;;;;;;1.17;1.17;;;18.00;63.30;;;;;;5081473;27;44595;-72
2023/03/30 11:40:34;;;;;;;1.07;1.07;;;18.10;63.30;;;;;;5095306;27;43486;-76
2023/03/30 11:43:02;;;;;;;1.20;1.10;;;18.00;63.10;;;;;;5084097;28;43463;-72
2023/03/30 11:45:48;;;;;;;1.17;1.17;;;18.00;63.30;;;;;;5099562;27;43463;-70
2023/03/30 11:48:45;;;;;;;1.30;1.30;;;18.00;63.50;;;;;;5107028;27;43825;-71
2023/03/30 11:51:29;;;;;;;1.10;1.10;;;17.90;63.50;;;;;;5088806;27;45284;-70
2023/03/30 11:54:00;;;;;;;1.10;1.10;;;18.00;63.60;;;;;;5066259;27;44403;-69
2023/03/30 11:56:31;;;;;;;1.17;1.17;;;18.10;63.40;;;;;;5090181;27;43576;-73
2023/03/30 11:59:04;;;;;;;1.10;1.10;;;18.10;63.10;;;;;;5099933;27;46073;-69
2023/03/30 12:01:46;;;;;;;1.40;1.40;;;18.10;62.90;;;;;;5089595;27;44620;-70
2023/03/30 12:04:15;;;;;;;1.10;1.10;;;18.10;63.10;;;;;;5104305;27;43456;-70
2023/03/30 12:06:47;;;;;;;1.23;1.23;;;18.10;63.40;;;;;;5107334;27;43538;-71
2023/03/30 12:09:32;;;;;;;1.27;1.20;;;18.10;63.40;;;;;;5107795;27;43607;-71
2023/03/30 12:12:10;;;;;;;0.93;0.93;;;18.10;63.30;;;;;;5105208;27;43410;-69
2023/03/30 12:14:54;;;;;;;1.10;1.10;;;18.10;63.40;;;;;;5107840;27;43378;-73
2023/03/30 12:17:37;;;;;;;1.20;1.20;;;18.00;63.30;;;;;;5083529;27;43996;-69
2023/03/30 12:20:11;;;;;;;1.30;1.30;;;18.00;63.50;;;;;;5103515;27;43762;-71
2023/03/30 12:22:41;;;;;;;1.30;1.30;;;18.00;63.70;;;;;;5106971;27;43371;-70
2023/03/30 12:25:15;;;;;;;1.20;1.20;;;18.00;63.60;;;;;;5101698;27;43964;-70
2023/03/30 12:27:59;;;;;;;1.20;1.20;;;18.00;63.80;;;;;;5097723;27;43505;-71
2023/03/30 12:30:29;;;;;;;1.23;1.13;;;18.00;63.90;;;;;;5090581;27;43620;-73
2023/03/30 12:33:01;;;;;;;1.20;1.20;;;18.00;64.00;;;;;;5107457;27;43519;-72
2023/03/30 12:35:54;;;;;;;1.00;1.00;;;17.90;64.00;;;;;;5107229;27;43425;-71
2023/03/30 12:38:24;;;;;;;1.30;1.30;;;17.90;63.80;;;;;;5083211;27;43542;-71
2023/03/30 12:41:03;;;;;;;1.13;1.13;;;18.00;63.60;;;;;;5104397;27;43812;-71
2023/03/30 12:43:37;;;;;;;1.10;1.10;;;18.10;63.20;;;;;;5107149;27;43463;-71
2023/03/30 12:46:06;;;;;;;1.23;1.13;;;18.20;62.90;;;;;;5100450;27;43428;-71
2023/03/30 12:48:38;;;;;;;1.10;1.10;;;18.20;63.00;;;;;;5107757;27;43366;-70
2023/03/30 12:51:11;;;;;;;0.90;0.90;;;18.20;63.10;;;;;;5100878;27;43921;-72
2023/03/30 12:54:13;;;;;;;1.13;1.13;;;18.20;63.10;;;;;;5101800;27;43582;-71
2023/03/30 12:56:46;;;;;;;1.30;1.30;;;18.20;63.00;;;;;;5096453;27;43834;-70
2023/03/30 12:59:29;;;;;;;1.13;1.13;;;18.10;63.10;;;;;;5107701;27;43386;-71
2023/03/30 13:02:03;;;;;;;1.10;1.10;;;18.10;63.60;;;;;;5074214;27;45701;-70
2023/03/30 13:04:36;;;;;;;1.07;1.07;;;18.00;63.30;;;;;;5096325;27;43474;-70
2023/03/30 13:07:05;;;;;;;1.20;1.10;;;18.00;63.50;;;;;;5105543;27;43479;-70
2023/03/30 13:09:35;;;;;;;1.00;1.00;;;18.00;63.30;;;;;;5080899;27;43677;-71
2023/03/30 13:12:20;;;;;;;1.30;1.30;;;18.00;63.60;;;;;;5097387;27;43880;-72
2023/03/30 13:14:57;;;;;;;1.00;1.00;;;18.00;63.70;;;;;;5097225;27;43436;-70
2023/03/30 13:17:25;;;;;;;1.00;1.00;;;18.00;63.80;;;;;;5083905;27;43426;-71
2023/03/30 13:20:14;;;;;;;1.10;1.10;;;18.00;63.90;;;;;;5092233;27;43386;-71
2023/03/30 13:23:21;;;;;;;1.20;1.20;;;18.00;63.80;;;;;;5087807;27;43872;-71
2023/03/30 13:25:53;;;;;;;1.00;1.00;;;18.00;63.80;;;;;;5106254;27;43450;-70
2023/03/30 13:28:47;;;;;;;1.00;1.00;;;18.00;63.80;;;;;;5086490;27;43416;-72